Time;durP1;ratioP1;P1;durP2;ratioP2;P2;SDS_P1;SDS_P2;PMS_P1;PMS_P2;Temp;Humidity;BMP_temperature;BMP_pressure;BME280_temperature;BME280_humidity;BME280_pressure;Samples;Min_cycle;Max_cycle;Signal;HPM_P1;HPM_P2
2022/11/28 00:03:07;;;;;;;4.05;3.35;;;;;;;;;;10374433;28;20259;-76
2022/11/28 00:08:08;;;;;;;8.80;4.65;;;;;;;;;;10391512;28;20215;-76
2022/11/28 00:13:09;;;;;;;6.60;4.68;;;;;;;;;;10390980;28;20223;-76
2022/11/28 00:18:10;;;;;;;7.40;5.10;;;;;;;;;;10378643;28;20235;-77
2022/11/28 00:23:11;;;;;;;5.63;4.47;;;;;;;;;;10376280;28;20246;-76
2022/11/28 00:28:12;;;;;;;6.43;4.35;;;;;;;;;;10371509;28;20799;-76
2022/11/28 00:33:13;;;;;;;5.97;4.57;;;;;;;;;;10392335;28;20750;-76
2022/11/28 00:38:14;;;;;;;6.57;3.75;;;;;;;;;;10398019;28;20223;-76
2022/11/28 00:43:15;;;;;;;4.18;3.47;;;;;;;;;;10383128;28;20278;-76
2022/11/28 00:48:16;;;;;;;4.82;3.53;;;;;;;;;;10392171;28;20757;-76
2022/11/28 00:53:18;;;;;;;6.38;4.57;;;;;;;;;;10364277;28;20795;-76
2022/11/28 00:58:19;;;;;;;4.45;4.07;;;;;;;;;;10395904;28;20770;-77
2022/11/28 01:03:20;;;;;;;5.15;4.60;;;;;;;;;;10415816;28;20215;-76
2022/11/28 01:08:21;;;;;;;3.85;3.53;;;;;;;;;;10415476;28;20223;-76
2022/11/28 01:13:22;;;;;;;4.80;3.97;;;;;;;;;;10399595;28;20229;-76
2022/11/28 01:18:23;;;;;;;6.93;4.30;;;;;;;;;;10410386;28;20247;-76
2022/11/28 01:23:24;;;;;;;8.32;5.10;;;;;;;;;;10413610;28;20207;-76
2022/11/28 01:28:25;;;;;;;8.15;4.88;;;;;;;;;;10414055;28;20310;-76
2022/11/28 01:33:26;;;;;;;3.22;2.92;;;;;;;;;;10394200;28;20227;-76
2022/11/28 01:38:27;;;;;;;6.15;4.07;;;;;;;;;;10414260;28;20223;-76
2022/11/28 01:43:29;;;;;;;6.80;3.65;;;;;;;;;;10406492;28;20214;-76
2022/11/28 01:48:39;;;;;;;5.22;3.65;;;;;;;;;;10411647;28;20629;-76
2022/11/28 01:53:42;;;;;;;5.70;4.13;;;;;;;;;;10398011;28;20272;-76
2022/11/28 01:58:46;;;;;;;6.32;4.05;;;;;;;;;;10406829;28;20312;-76
2022/11/28 02:03:48;;;;;;;5.00;3.95;;;;;;;;;;10404141;28;20212;-76
2022/11/28 02:08:50;;;;;;;5.93;3.63;;;;;;;;;;10421708;28;20787;-76
2022/11/28 02:13:54;;;;;;;4.82;3.90;;;;;;;;;;10401875;28;20243;-76
2022/11/28 02:18:59;;;;;;;9.23;4.78;;;;;;;;;;10403446;28;20215;-76
2022/11/28 02:24:03;;;;;;;5.25;4.15;;;;;;;;;;10411490;28;20249;-76
2022/11/28 02:29:07;;;;;;;6.35;4.20;;;;;;;;;;10402891;28;20658;-76
2022/11/28 02:34:28;;;;;;;5.75;3.88;;;;;;;;;;10419781;28;20258;-76
2022/11/28 02:39:35;;;;;;;6.57;4.50;;;;;;;;;;10378718;28;20220;-76
2022/11/28 02:44:40;;;;;;;4.45;3.75;;;;;;;;;;10396221;28;20755;-76
2022/11/28 02:49:51;;;;;;;5.63;3.80;;;;;;;;;;10379899;28;20224;-76
2022/11/28 02:54:54;;;;;;;4.40;4.00;;;;;;;;;;10376182;28;20695;-76
2022/11/28 02:59:55;;;;;;;3.70;3.47;;;;;;;;;;10378391;28;20247;-76
2022/11/28 03:05:12;;;;;;;6.38;4.38;;;;;;;;;;10382611;28;20638;-76
2022/11/28 03:10:24;;;;;;;6.63;4.07;;;;;;;;;;10392369;28;20208;-76
2022/11/28 03:15:30;;;;;;;6.00;3.70;;;;;;;;;;10376669;28;20299;-76
2022/11/28 03:20:44;;;;;;;5.00;4.55;;;;;;;;;;10379682;28;20348;-76
2022/11/28 03:25:58;;;;;;;4.63;2.95;;;;;;;;;;10374581;28;20303;-76
2022/11/28 03:31:01;;;;;;;4.53;4.07;;;;;;;;;;10378060;28;20267;-76
2022/11/28 03:36:05;;;;;;;7.03;5.10;;;;;;;;;;10379049;28;20265;-76
2022/11/28 03:41:07;;;;;;;4.13;3.83;;;;;;;;;;10371731;28;20220;-76
2022/11/28 03:46:12;;;;;;;6.97;4.75;;;;;;;;;;10381113;28;20337;-76
2022/11/28 03:51:18;;;;;;;6.75;3.97;;;;;;;;;;10390795;28;20774;-76
2022/11/28 03:56:30;;;;;;;7.82;5.35;;;;;;;;;;10380038;28;20250;-76
2022/11/28 04:01:38;;;;;;;6.10;4.78;;;;;;;;;;10395364;28;20773;-77
2022/11/28 04:06:54;;;;;;;7.13;4.40;;;;;;;;;;10378514;28;20219;-76
2022/11/28 04:11:58;;;;;;;6.68;4.55;;;;;;;;;;10378548;28;20221;-76
2022/11/28 04:17:05;;;;;;;8.80;5.35;;;;;;;;;;10376104;28;20680;-76
2022/11/28 04:22:08;;;;;;;6.00;4.70;;;;;;;;;;10397675;28;20708;-78
2022/11/28 04:27:12;;;;;;;5.93;5.32;;;;;;;;;;10393369;28;20220;-76
2022/11/28 04:32:14;;;;;;;6.18;4.43;;;;;;;;;;10374233;28;20239;-76
2022/11/28 04:37:16;;;;;;;8.13;3.63;;;;;;;;;;10415787;28;20223;-75
2022/11/28 04:42:25;;;;;;;6.93;4.00;;;;;;;;;;10418265;28;20592;-76
2022/11/28 04:47:27;;;;;;;5.90;4.97;;;;;;;;;;10419553;28;20878;-76
2022/11/28 04:52:34;;;;;;;5.78;4.72;;;;;;;;;;10416302;28;20221;-76
2022/11/28 04:57:36;;;;;;;6.35;5.07;;;;;;;;;;10416009;28;20721;-76
2022/11/28 05:02:37;;;;;;;9.63;4.78;;;;;;;;;;10391178;28;20296;-76
2022/11/28 05:07:38;;;;;;;5.07;4.40;;;;;;;;;;10406798;28;20222;-78
2022/11/28 05:12:39;;;;;;;5.45;4.28;;;;;;;;;;10402771;28;20706;-76
2022/11/28 05:17:41;;;;;;;7.82;4.00;;;;;;;;;;10389734;28;20224;-76
2022/11/28 05:22:42;;;;;;;5.45;4.53;;;;;;;;;;10400921;28;20288;-76
2022/11/28 05:27:43;;;;;;;6.30;3.90;;;;;;;;;;10409297;28;20310;-75
2022/11/28 05:32:44;;;;;;;5.05;3.50;;;;;;;;;;10403547;28;20254;-76
2022/11/28 05:37:45;;;;;;;5.38;4.10;;;;;;;;;;10396582;28;20226;-75
2022/11/28 05:42:46;;;;;;;5.60;4.47;;;;;;;;;;10419225;28;20962;-76
2022/11/28 05:47:47;;;;;;;8.45;4.20;;;;;;;;;;10411080;28;20233;-76
2022/11/28 05:52:48;;;;;;;7.50;4.93;;;;;;;;;;10420907;28;20203;-75
2022/11/28 05:57:49;;;;;;;9.73;5.03;;;;;;;;;;10420819;28;20218;-75
2022/11/28 06:02:50;;;;;;;11.02;4.90;;;;;;;;;;10415484;28;20352;-76
2022/11/28 06:07:51;;;;;;;8.50;5.25;;;;;;;;;;10417652;28;20269;-75
2022/11/28 06:12:53;;;;;;;10.35;5.13;;;;;;;;;;10399994;28;20914;-78
2022/11/28 06:17:54;;;;;;;8.50;5.72;;;;;;;;;;10423623;28;20223;-77
2022/11/28 06:22:55;;;;;;;7.70;5.28;;;;;;;;;;10418696;28;20221;-77
2022/11/28 06:27:56;;;;;;;10.05;5.80;;;;;;;;;;10416551;28;20215;-77
2022/11/28 06:32:57;;;;;;;7.55;5.32;;;;;;;;;;10399341;28;20242;-78
2022/11/28 06:37:58;;;;;;;6.40;4.57;;;;;;;;;;10420914;28;20795;-77
2022/11/28 06:42:59;;;;;;;16.25;5.25;;;;;;;;;;10387223;28;20221;-77
2022/11/28 06:48:01;;;;;;;11.15;5.88;;;;;;;;;;10390043;28;20215;-78
2022/11/28 06:53:02;;;;;;;18.00;5.57;;;;;;;;;;10415160;28;20222;-78
2022/11/28 06:58:03;;;;;;;8.10;5.00;;;;;;;;;;10413976;28;20662;-78
2022/11/28 07:03:04;;;;;;;9.57;5.30;;;;;;;;;;10410976;28;21043;-79
2022/11/28 07:08:05;;;;;;;14.95;4.13;;;;;;;;;;10415468;28;23874;-79
2022/11/28 07:13:06;;;;;;;6.10;5.03;;;;;;;;;;10413458;28;20454;-78
2022/11/28 07:18:07;;;;;;;8.45;4.65;;;;;;;;;;10392090;28;20227;-78
2022/11/28 07:23:09;;;;;;;7.80;4.82;;;;;;;;;;10414184;28;20225;-79
2022/11/28 07:28:10;;;;;;;4.03;3.58;;;;;;;;;;10413951;28;20261;-77
2022/11/28 07:33:11;;;;;;;4.32;3.58;;;;;;;;;;10408054;28;20781;-79
2022/11/28 07:38:12;;;;;;;10.52;4.75;;;;;;;;;;10414193;28;20628;-79
2022/11/28 07:43:13;;;;;;;5.10;3.85;;;;;;;;;;10375732;28;20229;-77
2022/11/28 07:48:14;;;;;;;4.60;3.22;;;;;;;;;;10422048;28;20237;-79
2022/11/28 07:53:15;;;;;;;3.13;2.83;;;;;;;;;;10411826;28;20301;-79
2022/11/28 07:58:17;;;;;;;5.88;3.80;;;;;;;;;;10372853;28;20219;-78
2022/11/28 08:03:18;;;;;;;11.98;4.38;;;;;;;;;;10398552;28;20211;-78
2022/11/28 08:08:19;;;;;;;7.03;3.92;;;;;;;;;;10407927;28;20392;-78
2022/11/28 08:13:20;;;;;;;9.68;4.82;;;;;;;;;;10413566;28;20211;-78
2022/11/28 08:18:21;;;;;;;10.90;4.53;;;;;;;;;;10419553;28;20222;-79
2022/11/28 08:23:22;;;;;;;11.82;3.00;;;;;;;;;;10416157;28;20215;-78
2022/11/28 08:28:24;;;;;;;5.13;3.40;;;;;;;;;;10408998;28;20306;-79
2022/11/28 08:33:25;;;;;;;5.18;3.75;;;;;;;;;;10400247;28;20227;-78
2022/11/28 08:38:26;;;;;;;6.55;4.00;;;;;;;;;;10411694;28;20309;-78
2022/11/28 08:43:27;;;;;;;4.65;3.50;;;;;;;;;;10407450;28;20528;-78
2022/11/28 08:48:29;;;;;;;4.22;3.63;;;;;;;;;;10391641;28;20215;-78
2022/11/28 08:53:31;;;;;;;5.13;4.65;;;;;;;;;;10354071;28;20364;-78
2022/11/28 08:58:32;;;;;;;7.50;4.30;;;;;;;;;;10375127;28;20233;-77
2022/11/28 09:03:33;;;;;;;5.15;4.65;;;;;;;;;;10402527;28;20206;-78
2022/11/28 09:08:34;;;;;;;6.55;4.53;;;;;;;;;;10403763;28;20211;-78
2022/11/28 09:13:36;;;;;;;11.25;4.28;;;;;;;;;;10420018;28;20766;-78
2022/11/28 09:18:37;;;;;;;7.53;4.25;;;;;;;;;;10404580;28;20227;-76
2022/11/28 09:23:39;;;;;;;4.05;3.67;;;;;;;;;;10414583;28;20203;-77
2022/11/28 09:28:40;;;;;;;5.07;3.95;;;;;;;;;;10399710;28;20231;-77
2022/11/28 09:33:42;;;;;;;6.72;4.63;;;;;;;;;;10415355;28;20233;-77
2022/11/28 09:38:43;;;;;;;8.55;4.65;;;;;;;;;;10413277;28;20355;-79
2022/11/28 09:43:44;;;;;;;9.35;4.57;;;;;;;;;;10419546;28;20225;-76
2022/11/28 09:48:49;;;;;;;5.25;4.00;;;;;;;;;;10419686;28;20223;-78
2022/11/28 09:54:14;;;;;;;7.07;4.80;;;;;;;;;;10413928;28;20210;-76
2022/11/28 09:59:26;;;;;;;7.50;3.85;;;;;;;;;;10383416;28;20234;-76
2022/11/28 10:04:30;;;;;;;9.13;5.47;;;;;;;;;;10402787;28;20215;-77
2022/11/28 10:09:38;;;;;;;6.10;3.67;;;;;;;;;;10406094;28;20215;-77
2022/11/28 10:14:42;;;;;;;6.25;4.28;;;;;;;;;;10408134;28;20828;-76
2022/11/28 10:19:47;;;;;;;6.15;4.03;;;;;;;;;;10415635;28;20226;-76
2022/11/28 10:24:51;;;;;;;10.07;5.20;;;;;;;;;;10401532;28;20209;-76
2022/11/28 10:30:00;;;;;;;10.52;4.60;;;;;;;;;;10420079;28;20210;-76
2022/11/28 10:35:13;;;;;;;5.93;4.47;;;;;;;;;;10394191;28;20241;-76
2022/11/28 10:40:27;;;;;;;8.60;4.10;;;;;;;;;;10402520;28;20211;-76
2022/11/28 10:45:37;;;;;;;3.83;2.95;;;;;;;;;;10409449;28;20233;-76
2022/11/28 10:51:03;;;;;;;7.40;4.63;;;;;;;;;;10408246;28;20224;-76
2022/11/28 10:56:17;;;;;;;7.53;5.07;;;;;;;;;;10412861;28;20227;-77
2022/11/28 11:01:18;;;;;;;6.20;4.40;;;;;;;;;;10415062;28;20215;-77
2022/11/28 11:06:19;;;;;;;7.10;4.18;;;;;;;;;;10414133;28;20211;-76
2022/11/28 11:11:26;;;;;;;8.82;4.60;;;;;;;;;;10413738;28;20222;-76
2022/11/28 11:16:47;;;;;;;4.22;3.83;;;;;;;;;;10396061;28;20231;-77
2022/11/28 11:21:57;;;;;;;8.27;4.32;;;;;;;;;;10364476;28;20807;-77
2022/11/28 11:27:06;;;;;;;7.57;5.18;;;;;;;;;;10402332;28;20265;-78
2022/11/28 11:32:20;;;;;;;5.80;5.15;;;;;;;;;;10420828;28;20707;-78
2022/11/28 11:37:30;;;;;;;9.50;4.95;;;;;;;;;;10416427;28;20225;-77
2022/11/28 11:42:32;;;;;;;9.55;5.78;;;;;;;;;;10418284;28;20211;-77
2022/11/28 11:47:43;;;;;;;9.77;4.97;;;;;;;;;;10407353;28;20207;-77
2022/11/28 11:52:59;;;;;;;8.43;4.70;;;;;;;;;;10410983;28;20206;-77
2022/11/28 11:58:01;;;;;;;8.73;4.53;;;;;;;;;;10409122;28;20305;-77
2022/11/28 12:03:10;;;;;;;7.97;4.80;;;;;;;;;;10394470;28;20208;-77
2022/11/28 12:08:30;;;;;;;7.18;4.93;;;;;;;;;;10395532;28;20260;-77
2022/11/28 12:13:32;;;;;;;7.25;4.90;;;;;;;;;;10409343;28;20219;-77
2022/11/28 12:18:46;;;;;;;9.02;5.47;;;;;;;;;;10412503;28;20269;-77
2022/11/28 12:24:03;;;;;;;8.43;4.63;;;;;;;;;;10418572;28;20451;-77
2022/11/28 12:29:23;;;;;;;6.93;4.60;;;;;;;;;;10402328;28;20213;-77
2022/11/28 12:34:38;;;;;;;8.73;4.28;;;;;;;;;;10404787;28;20246;-77
2022/11/28 12:39:45;;;;;;;8.82;5.45;;;;;;;;;;10392076;28;20229;-76
2022/11/28 12:45:01;;;;;;;9.07;4.57;;;;;;;;;;10407569;28;20222;-77
2022/11/28 12:50:02;;;;;;;6.63;4.28;;;;;;;;;;10409728;28;20316;-76
2022/11/28 12:55:11;;;;;;;8.65;4.97;;;;;;;;;;10408437;28;20276;-77
2022/11/28 13:00:18;;;;;;;10.55;5.30;;;;;;;;;;10343169;28;20204;-76
2022/11/28 13:05:22;;;;;;;8.45;4.93;;;;;;;;;;10370367;28;20315;-76
2022/11/28 13:10:31;;;;;;;10.65;5.07;;;;;;;;;;10362226;28;20223;-76
2022/11/28 13:15:35;;;;;;;9.60;5.18;;;;;;;;;;10400881;28;20307;-76
2022/11/28 13:20:42;;;;;;;7.05;5.25;;;;;;;;;;10403446;28;20529;-75
2022/11/28 13:25:51;;;;;;;11.80;6.10;;;;;;;;;;10373828;28;20306;-76
2022/11/28 13:30:55;;;;;;;7.15;5.68;;;;;;;;;;10408187;28;20204;-76
2022/11/28 13:35:57;;;;;;;6.10;4.65;;;;;;;;;;10357079;28;20259;-76
2022/11/28 13:40:58;;;;;;;8.63;5.30;;;;;;;;;;10355728;28;20215;-77
2022/11/28 13:46:00;;;;;;;8.35;5.13;;;;;;;;;;10401298;28;20699;-78
2022/11/28 13:51:01;;;;;;;9.82;4.03;;;;;;;;;;10371451;28;20222;-77
2022/11/28 13:56:05;;;;;;;5.70;4.47;;;;;;;;;;10377494;28;20215;-77
2022/11/28 14:01:13;;;;;;;6.60;4.90;;;;;;;;;;10362608;28;20226;-78
2022/11/28 14:06:22;;;;;;;6.55;4.18;;;;;;;;;;10382100;28;20721;-77
2022/11/28 14:11:25;;;;;;;7.82;5.32;;;;;;;;;;10390846;28;20215;-78
2022/11/28 14:16:40;;;;;;;9.20;5.15;;;;;;;;;;10405609;28;20227;-78
2022/11/28 14:22:05;;;;;;;8.55;5.03;;;;;;;;;;10347220;28;20212;-78
2022/11/28 14:27:06;;;;;;;8.82;5.30;;;;;;;;;;10377600;28;20763;-78
2022/11/28 14:32:22;;;;;;;8.32;5.40;;;;;;;;;;10384613;28;20230;-77
2022/11/28 14:37:28;;;;;;;8.43;5.15;;;;;;;;;;10426473;28;20706;-78
2022/11/28 14:42:34;;;;;;;11.63;6.18;;;;;;;;;;10414540;28;20227;-77
2022/11/28 14:47:41;;;;;;;6.35;5.20;;;;;;;;;;10408646;28;20603;-78
2022/11/28 14:52:49;;;;;;;9.88;5.05;;;;;;;;;;10421910;28;20550;-78
2022/11/28 14:58:01;;;;;;;9.65;5.57;;;;;;;;;;10416457;28;20305;-78
2022/11/28 15:03:14;;;;;;;7.75;5.53;;;;;;;;;;10412786;28;20438;-78
2022/11/28 15:08:24;;;;;;;10.77;5.82;;;;;;;;;;10414845;28;20221;-78
2022/11/28 15:13:25;;;;;;;7.60;5.53;;;;;;;;;;10421862;28;20211;-78
2022/11/28 15:18:27;;;;;;;8.15;4.82;;;;;;;;;;10414445;28;20300;-78
2022/11/28 15:23:29;;;;;;;9.25;5.55;;;;;;;;;;10404811;28;20689;-78
2022/11/28 15:28:32;;;;;;;7.03;5.28;;;;;;;;;;10413894;28;20223;-77
2022/11/28 15:33:34;;;;;;;12.38;5.10;;;;;;;;;;10397777;28;20233;-76
2022/11/28 15:38:37;;;;;;;7.47;4.40;;;;;;;;;;10404110;28;20246;-76
2022/11/28 15:43:42;;;;;;;10.02;5.88;;;;;;;;;;10416815;28;20207;-76
2022/11/28 15:48:48;;;;;;;8.45;4.93;;;;;;;;;;10411821;28;20215;-76
2022/11/28 15:53:49;;;;;;;8.88;5.38;;;;;;;;;;10396846;28;20658;-77
2022/11/28 15:58:51;;;;;;;7.60;5.18;;;;;;;;;;10418260;28;20707;-76
2022/11/28 16:04:00;;;;;;;8.50;5.38;;;;;;;;;;10419324;28;20210;-76
2022/11/28 16:09:04;;;;;;;8.68;6.00;;;;;;;;;;10414748;28;20233;-76
2022/11/28 16:14:09;;;;;;;7.05;4.72;;;;;;;;;;10413173;28;20220;-76
2022/11/28 16:19:23;;;;;;;10.35;6.07;;;;;;;;;;10411653;28;21919;-76
2022/11/28 16:24:26;;;;;;;8.80;5.53;;;;;;;;;;10382659;28;20200;-76
2022/11/28 16:29:34;;;;;;;8.98;5.68;;;;;;;;;;10408596;28;20691;-76
2022/11/28 16:34:49;;;;;;;8.88;5.38;;;;;;;;;;10400073;28;20810;-76
2022/11/28 16:40:00;;;;;;;8.77;6.13;;;;;;;;;;10404944;28;20322;-76
2022/11/28 16:45:15;;;;;;;9.48;5.85;;;;;;;;;;10411723;28;20268;-76
2022/11/28 16:50:18;;;;;;;7.55;5.72;;;;;;;;;;10409403;28;20227;-77
2022/11/28 16:55:30;;;;;;;14.95;5.68;;;;;;;;;;10410642;28;20199;-76
2022/11/28 17:00:31;;;;;;;7.57;5.85;;;;;;;;;;10405299;28;20215;-77
2022/11/28 17:05:33;;;;;;;8.18;5.60;;;;;;;;;;10395107;28;20222;-76
2022/11/28 17:10:36;;;;;;;8.93;6.53;;;;;;;;;;10407387;28;20210;-76
2022/11/28 17:15:37;;;;;;;5.72;5.07;;;;;;;;;;10395828;28;20694;-76
2022/11/28 17:20:38;;;;;;;7.82;5.00;;;;;;;;;;10402148;28;20276;-77
2022/11/28 17:25:39;;;;;;;7.40;5.43;;;;;;;;;;10400079;28;20210;-77
2022/11/28 17:30:41;;;;;;;6.70;5.68;;;;;;;;;;10376832;28;20587;-77
2022/11/28 17:35:45;;;;;;;10.55;6.68;;;;;;;;;;10401291;28;20760;-77
2022/11/28 17:40:46;;;;;;;9.02;6.18;;;;;;;;;;10407717;28;20745;-77
2022/11/28 17:45:49;;;;;;;9.52;6.18;;;;;;;;;;10393417;28;20222;-76
2022/11/28 17:50:51;;;;;;;7.82;5.18;;;;;;;;;;10407256;28;20792;-76
2022/11/28 17:55:57;;;;;;;5.93;4.68;;;;;;;;;;10406710;28;20225;-76
2022/11/28 18:00:59;;;;;;;12.10;6.70;;;;;;;;;;10388696;28;20719;-76
2022/11/28 18:06:00;;;;;;;9.95;5.55;;;;;;;;;;10371473;28;20214;-77
2022/11/28 18:11:02;;;;;;;11.18;5.65;;;;;;;;;;10350638;28;20651;-77
2022/11/28 18:16:03;;;;;;;10.30;6.50;;;;;;;;;;10389879;28;20222;-76
2022/11/28 18:21:07;;;;;;;8.25;6.22;;;;;;;;;;10377226;28;20648;-76
2022/11/28 18:26:09;;;;;;;11.77;6.07;;;;;;;;;;10357668;28;20436;-77
2022/11/28 18:31:11;;;;;;;10.23;6.10;;;;;;;;;;10406700;28;20798;-77
2022/11/28 18:36:17;;;;;;;11.05;6.63;;;;;;;;;;10404681;28;20609;-77
2022/11/28 18:41:18;;;;;;;6.97;5.63;;;;;;;;;;10412045;28;20222;-76
2022/11/28 18:46:20;;;;;;;9.07;6.13;;;;;;;;;;10412718;28;20781;-76
2022/11/28 18:51:27;;;;;;;28.88;14.23;;;;;;;;;;10389260;28;20214;-77
2022/11/28 18:56:29;;;;;;;18.65;13.38;;;;;;;;;;10416137;28;20699;-76
2022/11/28 19:01:31;;;;;;;26.67;15.10;;;;;;;;;;10388961;28;20211;-76
2022/11/28 19:06:33;;;;;;;27.55;14.27;;;;;;;;;;10411878;28;20214;-76
2022/11/28 19:11:35;;;;;;;14.35;8.35;;;;;;;;;;10409837;28;20215;-76
2022/11/28 19:16:37;;;;;;;35.47;22.02;;;;;;;;;;10398213;28;20250;-76
2022/11/28 19:21:38;;;;;;;14.60;10.45;;;;;;;;;;10411015;28;20251;-76
2022/11/28 19:26:39;;;;;;;10.40;7.97;;;;;;;;;;10406064;28;20280;-76
2022/11/28 19:31:40;;;;;;;14.40;10.40;;;;;;;;;;10408645;28;20355;-77
2022/11/28 19:36:43;;;;;;;11.20;7.38;;;;;;;;;;10392065;28;20252;-77
2022/11/28 19:41:45;;;;;;;9.48;7.25;;;;;;;;;;10393936;28;20211;-76
2022/11/28 19:46:47;;;;;;;11.20;7.50;;;;;;;;;;10408944;28;20226;-76
2022/11/28 19:51:48;;;;;;;10.25;7.53;;;;;;;;;;10408466;28;20207;-76
2022/11/28 19:56:50;;;;;;;8.75;6.93;;;;;;;;;;10408169;28;20218;-77
2022/11/28 20:01:52;;;;;;;13.32;7.53;;;;;;;;;;10382797;28;20970;-77
2022/11/28 20:06:53;;;;;;;15.15;9.07;;;;;;;;;;10386925;28;20215;-76
2022/11/28 20:11:55;;;;;;;7.65;6.80;;;;;;;;;;10393180;28;20727;-76
2022/11/28 20:16:57;;;;;;;11.40;7.45;;;;;;;;;;10407653;28;20215;-77
2022/11/28 20:21:59;;;;;;;13.52;7.57;;;;;;;;;;10372141;28;20214;-76
2022/11/28 20:27:01;;;;;;;11.55;8.40;;;;;;;;;;10410532;28;20215;-77
2022/11/28 20:32:02;;;;;;;15.15;9.63;;;;;;;;;;10407182;28;21084;-77
2022/11/28 20:37:04;;;;;;;10.60;7.65;;;;;;;;;;10395595;28;20269;-77
2022/11/28 20:42:06;;;;;;;13.02;8.45;;;;;;;;;;10398733;28;20210;-77
2022/11/28 20:47:07;;;;;;;18.33;8.52;;;;;;;;;;10402885;28;20218;-77
2022/11/28 20:52:08;;;;;;;10.55;6.47;;;;;;;;;;10401441;28;20239;-77
2022/11/28 20:57:09;;;;;;;13.40;7.40;;;;;;;;;;10418930;28;20709;-77
2022/11/28 21:02:10;;;;;;;11.70;7.22;;;;;;;;;;10410501;28;20211;-77
2022/11/28 21:07:11;;;;;;;14.27;7.50;;;;;;;;;;10408648;28;20528;-76
2022/11/28 21:12:12;;;;;;;12.98;7.38;;;;;;;;;;10400839;28;20315;-76
2022/11/28 21:17:14;;;;;;;12.18;7.07;;;;;;;;;;10410426;28;20218;-76
2022/11/28 21:22:15;;;;;;;13.23;7.68;;;;;;;;;;10414194;28;20222;-76
2022/11/28 21:27:16;;;;;;;14.32;7.65;;;;;;;;;;10413484;28;20234;-76
2022/11/28 21:32:17;;;;;;;15.52;8.10;;;;;;;;;;10401335;28;20372;-76
2022/11/28 21:37:19;;;;;;;15.02;8.10;;;;;;;;;;10384922;28;20219;-76
2022/11/28 21:42:20;;;;;;;11.30;7.63;;;;;;;;;;10371048;28;20726;-76
2022/11/28 21:47:21;;;;;;;13.18;7.65;;;;;;;;;;10374596;28;20638;-76
2022/11/28 21:52:23;;;;;;;12.27;7.30;;;;;;;;;;10350349;28;20200;-76
2022/11/28 21:57:24;;;;;;;12.75;7.30;;;;;;;;;;10369026;28;20221;-76
2022/11/28 22:02:25;;;;;;;14.98;8.07;;;;;;;;;;10413879;28;20363;-77
2022/11/28 22:07:27;;;;;;;13.23;8.60;;;;;;;;;;10412388;28;20298;-76
2022/11/28 22:12:28;;;;;;;11.77;7.85;;;;;;;;;;10416342;28;20215;-77
2022/11/28 22:17:31;;;;;;;13.95;7.95;;;;;;;;;;10421245;28;20593;-77
2022/11/28 22:22:32;;;;;;;14.80;7.82;;;;;;;;;;10421703;28;20292;-77
2022/11/28 22:27:34;;;;;;;14.52;6.88;;;;;;;;;;10419050;28;20214;-77
2022/11/28 22:32:36;;;;;;;13.52;7.53;;;;;;;;;;10420400;28;20373;-77
2022/11/28 22:37:38;;;;;;;15.75;8.50;;;;;;;;;;10421910;28;20726;-77
2022/11/28 22:42:39;;;;;;;18.35;8.38;;;;;;;;;;10414911;28;20331;-77
2022/11/28 22:47:41;;;;;;;12.82;7.75;;;;;;;;;;10409709;28;20238;-77
2022/11/28 22:52:43;;;;;;;16.52;9.18;;;;;;;;;;10420704;28;20214;-77
2022/11/28 22:57:44;;;;;;;15.68;8.50;;;;;;;;;;10397725;28;20211;-77
2022/11/28 23:02:46;;;;;;;11.75;7.97;;;;;;;;;;10391958;28;20210;-77
2022/11/28 23:07:48;;;;;;;16.98;8.57;;;;;;;;;;10420782;28;20301;-77
2022/11/28 23:12:50;;;;;;;15.85;8.38;;;;;;;;;;10412635;28;20215;-77
2022/11/28 23:17:51;;;;;;;16.00;8.32;;;;;;;;;;10382764;28;20223;-77
2022/11/28 23:22:52;;;;;;;15.52;8.30;;;;;;;;;;10378475;28;20238;-77
2022/11/28 23:27:53;;;;;;;13.85;8.95;;;;;;;;;;10417908;28;20227;-78
2022/11/28 23:32:54;;;;;;;14.95;7.78;;;;;;;;;;10415941;28;20361;-77
2022/11/28 23:37:55;;;;;;;16.95;8.85;;;;;;;;;;10407713;28;20210;-77
2022/11/28 23:42:56;;;;;;;13.70;8.07;;;;;;;;;;10417333;28;20203;-77
2022/11/28 23:47:57;;;;;;;12.38;8.25;;;;;;;;;;10421884;28;20325;-77
2022/11/28 23:52:58;;;;;;;13.93;8.85;;;;;;;;;;10412941;28;20220;-78
2022/11/28 23:58:00;;;;;;;16.30;8.65;;;;;;;;;;10421855;28;20222;-78
